Time;durP1;ratioP1;P1;durP2;ratioP2;P2;SDS_P1;SDS_P2;PMS_P1;PMS_P2;Temp;Humidity;BMP_temperature;BMP_pressure;BME280_temperature;BME280_humidity;BME280_pressure;Samples;Min_cycle;Max_cycle;Signal;HPM_P1;HPM_P2
2023/04/26 00:01:02;;;;;;;11.23;3.05;;;;;;;9.16;50.63;100795.78;4147881;28;20042;-64
2023/04/26 00:03:07;;;;;;;8.68;3.00;;;;;;;9.13;51.30;100800.91;4145610;28;20034;-64
2023/04/26 00:05:10;;;;;;;8.68;3.60;;;;;;;9.11;52.60;100802.56;4147641;28;20064;-65
2023/04/26 00:07:14;;;;;;;5.25;2.22;;;;;;;9.10;53.61;100799.09;4147724;28;20038;-64
2023/04/26 00:09:18;;;;;;;9.65;2.80;;;;;;;9.07;54.54;100807.66;4147776;28;20034;-64
2023/04/26 00:11:21;;;;;;;7.47;2.63;;;;;;;9.04;54.56;100793.75;4147529;28;20209;-64
2023/04/26 00:13:24;;;;;;;9.75;2.70;;;;;;;9.02;54.57;100798.91;4128532;28;20039;-65
2023/04/26 00:15:27;;;;;;;9.95;2.38;;;;;;;8.97;54.76;100800.47;4148472;28;20076;-64
2023/04/26 00:17:30;;;;;;;8.40;2.70;;;;;;;8.93;54.63;100796.03;4147144;28;20042;-65
2023/04/26 00:19:35;;;;;;;7.43;3.75;;;;;;;8.88;54.71;100803.72;4147617;28;20484;-65
2023/04/26 00:21:38;;;;;;;7.57;2.58;;;;;;;8.85;54.78;100797.59;4130043;28;20039;-64
2023/04/26 00:23:41;;;;;;;10.73;3.30;;;;;;;8.80;55.13;100805.22;4144629;28;20045;-65
2023/04/26 00:25:45;;;;;;;11.27;3.03;;;;;;;8.74;55.65;100808.50;4125286;28;21207;-64
2023/04/26 00:27:48;;;;;;;6.45;2.30;;;;;;;8.70;55.46;100811.88;4146372;28;20082;-64
2023/04/26 00:29:51;;;;;;;7.97;2.65;;;;;;;8.70;54.67;100809.28;4129164;28;20061;-64
2023/04/26 00:32:00;;;;;;;8.25;3.17;;;;;;;8.68;54.88;100804.88;4130328;28;20052;-64
2023/04/26 00:34:03;;;;;;;9.20;3.72;;;;;;;8.68;54.50;100812.66;4123844;28;20508;-65
2023/04/26 00:36:07;;;;;;;5.65;2.25;;;;;;;8.67;53.97;100801.44;4145556;28;20064;-65
2023/04/26 00:38:10;;;;;;;11.70;3.00;;;;;;;8.68;54.20;100802.31;4127730;28;20046;-65
2023/04/26 00:40:15;;;;;;;6.75;2.30;;;;;;;8.66;54.19;100798.78;4128759;28;20038;-64
2023/04/26 00:42:18;;;;;;;7.53;2.80;;;;;;;8.64;53.30;100798.72;4145483;28;20499;-64
2023/04/26 00:44:21;;;;;;;9.20;3.30;;;;;;;8.64;54.08;100800.44;4127032;28;20436;-64
2023/04/26 00:46:25;;;;;;;10.95;3.20;;;;;;;8.61;54.79;100798.66;4129164;28;20539;-64
2023/04/26 00:48:28;;;;;;;8.65;2.75;;;;;;;8.55;55.43;100801.06;4145246;28;20422;-63
2023/04/26 00:50:32;;;;;;;6.22;2.38;;;;;;;8.52;55.47;100808.75;4129658;28;20038;-64
2023/04/26 00:52:38;;;;;;;;;;;;;;;8.35;55.86;100809.13;4131390;28;20066;-64
2023/04/26 00:54:41;;;;;;;6.00;2.73;;;;;;;8.34;55.81;100807.38;4137890;28;20354;-64
2023/04/26 00:56:44;;;;;;;8.57;3.00;;;;;;;8.34;55.90;100809.09;4126425;28;20500;-64
2023/04/26 00:58:47;;;;;;;9.25;3.47;;;;;;;8.32;55.57;100806.47;4143321;28;20048;-64
2023/04/26 01:00:50;;;;;;;13.07;3.83;;;;;;;8.31;55.07;100808.97;4146671;28;20064;-64
2023/04/26 01:02:53;;;;;;;8.60;3.60;;;;;;;8.31;54.85;100799.53;4140035;28;20050;-64
2023/04/26 01:04:56;;;;;;;11.35;3.05;;;;;;;8.31;55.61;100808.97;4129246;28;20094;-64
2023/04/26 01:07:00;;;;;;;6.03;2.97;;;;;;;8.24;56.48;100802.75;4145557;28;20478;-64
2023/04/26 01:09:08;;;;;;;9.38;3.10;;;;;;;8.23;57.09;100810.50;4127968;28;20046;-66
2023/04/26 01:11:11;;;;;;;8.60;3.42;;;;;;;8.16;57.29;100809.41;4146409;28;20459;-65
2023/04/26 01:13:15;;;;;;;8.93;3.45;;;;;;;8.14;56.51;100805.91;4126009;28;20045;-65
2023/04/26 01:15:18;;;;;;;8.85;3.47;;;;;;;8.11;56.92;100806.69;4146406;28;20459;-66
2023/04/26 01:17:21;;;;;;;13.43;3.13;;;;;;;8.04;56.83;100810.84;4126200;28;20124;-65
2023/04/26 01:19:24;;;;;;;10.15;3.53;;;;;;;8.03;56.69;100806.47;4146284;28;20121;-65
2023/04/26 01:21:27;;;;;;;5.45;2.90;;;;;;;8.01;56.93;100810.72;4125988;28;20045;-65
2023/04/26 01:23:51;;;;;;;8.70;3.22;;;;;;;7.96;57.37;100809.72;4144564;28;20129;-65
2023/04/26 01:25:55;;;;;;;;;;;;;;;7.83;57.87;100810.16;4128620;28;20066;-65
2023/04/26 01:27:57;;;;;;;10.35;3.72;;;;;;;7.83;57.60;100810.16;4133092;28;19999;-65
2023/04/26 01:30:00;;;;;;;11.30;3.28;;;;;;;7.81;57.47;100806.63;4128047;28;20043;-65
2023/04/26 01:32:06;;;;;;;9.88;3.70;;;;;;;7.78;57.50;100807.44;4127877;28;20038;-65
2023/04/26 01:34:09;;;;;;;6.70;3.38;;;;;;;7.74;57.89;100804.69;4144489;28;20581;-66
2023/04/26 01:36:12;;;;;;;8.20;3.60;;;;;;;7.72;58.31;100804.63;4138068;28;20058;-65
2023/04/26 01:38:16;;;;;;;8.02;3.78;;;;;;;7.71;57.83;100800.31;4115300;28;20153;-65
2023/04/26 01:40:21;;;;;;;9.48;3.60;;;;;;;7.69;57.84;100808.03;4149598;28;20034;-65
2023/04/26 01:42:24;;;;;;;6.75;3.45;;;;;;;7.69;57.98;100812.31;4127210;28;20038;-65
2023/04/26 01:44:26;;;;;;;9.75;4.28;;;;;;;7.63;58.55;100810.41;4137689;28;20108;-65
2023/04/26 01:46:29;;;;;;;7.18;3.58;;;;;;;7.58;58.38;100804.22;4127662;28;20500;-65
2023/04/26 01:48:33;;;;;;;7.43;3.63;;;;;;;7.58;58.64;100798.16;4126378;28;20046;-65
2023/04/26 01:50:36;;;;;;;10.90;5.57;;;;;;;7.53;59.09;100800.59;4142093;28;20128;-65
2023/04/26 01:52:38;;;;;;;10.75;4.90;;;;;;;7.52;59.13;100814.38;4126444;28;20062;-65
2023/04/26 01:54:41;;;;;;;9.35;4.53;;;;;;;7.52;59.49;100809.22;4128709;28;20042;-65
2023/04/26 01:56:46;;;;;;;7.47;3.88;;;;;;;7.47;59.11;100801.28;4122334;28;20065;-65
2023/04/26 01:58:49;;;;;;;11.50;5.15;;;;;;;7.47;58.20;100801.28;4129239;28;20046;-65
2023/04/26 02:00:52;;;;;;;12.48;5.38;;;;;;;7.53;58.25;100798.00;4109123;28;20051;-65
2023/04/26 02:02:55;;;;;;;9.15;4.45;;;;;;;7.58;58.16;100801.63;4127682;28;20095;-65
2023/04/26 02:04:58;;;;;;;11.38;4.45;;;;;;;7.65;57.01;100806.19;4122227;28;20070;-65
2023/04/26 02:07:01;;;;;;;14.18;4.75;;;;;;;7.64;57.48;100803.53;4128694;28;20054;-65
2023/04/26 02:09:04;;;;;;;13.02;4.25;;;;;;;7.64;56.48;100806.13;4146004;28;20054;-65
2023/04/26 02:11:07;;;;;;;9.57;4.30;;;;;;;7.63;56.45;100807.81;4112299;28;20058;-65
2023/04/26 02:13:12;;;;;;;7.65;3.38;;;;;;;7.65;56.80;100803.59;4134329;28;20121;-65
2023/04/26 02:15:15;;;;;;;12.35;4.38;;;;;;;7.56;56.72;100803.28;4129072;28;20130;-65
2023/04/26 02:17:20;;;;;;;10.13;4.00;;;;;;;7.55;56.45;100806.72;4123815;28;20586;-65
2023/04/26 02:19:22;;;;;;;12.38;4.57;;;;;;;7.55;56.64;100800.63;4145393;28;20445;-65
2023/04/26 02:21:27;;;;;;;8.25;3.25;;;;;;;7.62;56.73;100806.09;4145599;28;20049;-65
2023/04/26 02:23:30;;;;;;;10.43;4.23;;;;;;;7.62;56.50;100800.00;4127801;28;20038;-66
2023/04/26 02:25:33;;;;;;;7.20;3.60;;;;;;;7.57;56.34;100810.22;4111820;28;20039;-65
2023/04/26 02:27:35;;;;;;;8.45;3.65;;;;;;;7.53;56.56;100803.19;4145434;28;20125;-65
2023/04/26 02:29:40;;;;;;;7.50;3.55;;;;;;;7.47;56.87;100806.44;4128449;28;20046;-65
2023/04/26 02:31:48;;;;;;;7.50;3.35;;;;;;;7.46;57.33;100809.88;4138724;28;20050;-65
2023/04/26 02:33:51;;;;;;;8.93;4.10;;;;;;;7.40;58.57;100803.63;4145389;28;20490;-65
2023/04/26 02:35:53;;;;;;;10.30;3.65;;;;;;;7.36;59.51;100812.09;4117072;28;20074;-65
2023/04/26 02:37:56;;;;;;;9.25;3.92;;;;;;;7.33;59.46;100808.59;4128320;28;20035;-65
2023/04/26 02:40:00;;;;;;;9.55;3.35;;;;;;;7.31;59.84;100809.38;4145353;28;20550;-65
2023/04/26 02:42:03;;;;;;;10.93;3.60;;;;;;;7.28;59.13;100810.13;4128112;28;20035;-65
2023/04/26 02:44:07;;;;;;;10.32;4.05;;;;;;;7.27;58.96;100813.56;4117439;28;21228;-65
2023/04/26 02:46:11;;;;;;;9.32;4.03;;;;;;;7.24;58.93;100812.56;4123311;28;20474;-65
2023/04/26 02:48:14;;;;;;;12.70;4.80;;;;;;;7.20;59.92;100809.03;4128323;28;20050;-65
2023/04/26 02:50:17;;;;;;;8.45;3.45;;;;;;;7.19;59.99;100809.84;4128029;28;20089;-65
2023/04/26 02:52:20;;;;;;;8.25;3.58;;;;;;;7.21;59.38;100810.75;4127420;28;20534;-65
2023/04/26 02:54:23;;;;;;;10.98;4.03;;;;;;;7.19;59.02;100808.97;4126344;28;20049;-65
2023/04/26 02:56:26;;;;;;;8.00;3.80;;;;;;;7.12;59.43;100806.16;4128199;28;20046;-65
2023/04/26 02:58:30;;;;;;;9.20;4.13;;;;;;;7.09;59.26;100813.81;4127542;28;20050;-65
2023/04/26 03:00:33;;;;;;;11.02;4.72;;;;;;;7.25;58.19;100809.16;4144090;28;20034;-65
2023/04/26 03:02:39;;;;;;;8.13;3.83;;;;;;;7.15;57.87;100808.88;4128729;28;20042;-65
2023/04/26 03:04:42;;;;;;;10.80;3.97;;;;;;;7.13;58.84;100819.97;4126558;28;20308;-65
2023/04/26 03:06:45;;;;;;;12.70;3.72;;;;;;;7.08;59.21;100814.66;4129309;28;20034;-65
2023/04/26 03:08:48;;;;;;;7.85;3.53;;;;;;;7.01;59.49;100816.97;4128037;28;20046;-66
2023/04/26 03:10:51;;;;;;;10.40;4.25;;;;;;;6.95;59.08;100817.63;4148159;28;20451;-65
2023/04/26 03:12:54;;;;;;;8.55;3.88;;;;;;;6.91;59.68;100814.06;4139931;28;20058;-65
2023/04/26 03:14:57;;;;;;;8.18;4.05;;;;;;;6.88;59.20;100813.97;4130885;28;20038;-65
2023/04/26 03:17:01;;;;;;;7.63;3.75;;;;;;;6.81;59.56;100812.84;4130911;28;20038;-65
2023/04/26 03:19:08;;;;;;;13.23;5.65;;;;;;;6.78;60.11;100817.06;4123691;28;20038;-65
2023/04/26 03:21:12;;;;;;;9.00;4.05;;;;;;;6.75;60.29;100811.78;4130212;28;20045;-65
2023/04/26 03:23:15;;;;;;;10.20;4.20;;;;;;;6.75;60.08;100807.47;4130432;28;20030;-65
2023/04/26 03:25:18;;;;;;;7.38;3.38;;;;;;;6.75;60.11;100807.47;4130902;28;20073;-65
2023/04/26 03:27:21;;;;;;;9.60;3.88;;;;;;;6.74;60.60;100810.00;4130368;28;20066;-65
2023/04/26 03:29:24;;;;;;;7.47;3.35;;;;;;;6.74;60.56;100810.88;4130666;28;20042;-65
2023/04/26 03:31:26;;;;;;;5.10;2.97;;;;;;;6.74;60.47;100815.19;4130983;28;20034;-65
2023/04/26 03:33:30;;;;;;;10.27;4.05;;;;;;;6.73;60.39;100813.41;4143951;28;20436;-65
2023/04/26 03:35:34;;;;;;;6.10;3.33;;;;;;;6.69;60.89;100812.44;4147079;28;20037;-65
2023/04/26 03:37:38;;;;;;;10.00;4.00;;;;;;;6.61;60.80;100819.94;4130732;28;20042;-65
2023/04/26 03:39:45;;;;;;;9.77;3.80;;;;;;;6.56;61.08;100821.44;4114312;28;20081;-65
2023/04/26 03:41:49;;;;;;;5.90;2.97;;;;;;;6.54;61.52;100824.78;4131166;28;20046;-65
2023/04/26 03:43:51;;;;;;;8.20;3.80;;;;;;;6.49;61.97;100816.88;4147200;28;20107;-65
2023/04/26 03:45:55;;;;;;;13.43;4.60;;;;;;;6.47;62.22;100821.13;4127073;28;20041;-65
2023/04/26 03:47:58;;;;;;;8.48;3.67;;;;;;;6.40;62.49;100820.00;4147525;28;20115;-65
2023/04/26 03:50:01;;;;;;;13.23;5.28;;;;;;;6.37;62.89;100821.59;4128879;28;20042;-65
2023/04/26 03:52:06;;;;;;;8.02;4.00;;;;;;;6.31;62.95;100822.25;4130077;28;20444;-65
2023/04/26 03:54:09;;;;;;;9.40;4.07;;;;;;;6.24;63.00;100820.28;4130902;28;20506;-65
2023/04/26 03:56:12;;;;;;;8.27;3.97;;;;;;;6.19;63.32;100820.09;4130733;28;20132;-65
2023/04/26 03:58:15;;;;;;;11.02;4.60;;;;;;;6.16;63.90;100819.09;4130263;28;20085;-65
2023/04/26 04:00:18;;;;;;;7.05;3.83;;;;;;;6.08;64.29;100819.66;4130061;28;20373;-65
2023/04/26 04:02:22;;;;;;;8.63;4.72;;;;;;;5.95;64.47;100815.69;4116807;28;20508;-64
2023/04/26 04:04:26;;;;;;;11.55;4.47;;;;;;;5.89;65.01;100818.06;4128093;28;20034;-65
2023/04/26 04:06:29;;;;;;;9.98;4.63;;;;;;;5.88;64.89;100816.28;4135163;28;20057;-65
2023/04/26 04:08:34;;;;;;;8.98;4.22;;;;;;;5.88;65.24;100815.41;4146875;28;20450;-65
2023/04/26 04:10:37;;;;;;;14.90;5.07;;;;;;;5.86;64.95;100811.91;4130023;28;20089;-65
2023/04/26 04:12:40;;;;;;;12.50;4.93;;;;;;;5.84;65.02;100814.44;4126470;28;20034;-65
2023/04/26 04:14:43;;;;;;;7.45;3.85;;;;;;;5.86;64.99;100814.50;4128689;28;20069;-64
2023/04/26 04:16:46;;;;;;;11.10;4.30;;;;;;;5.85;65.09;100811.00;4125103;28;20054;-64
2023/04/26 04:18:49;;;;;;;11.23;4.30;;;;;;;5.78;65.10;100821.91;4127873;28;20074;-70
2023/04/26 04:20:52;;;;;;;8.77;4.63;;;;;;;5.83;65.06;100822.97;4122998;28;20077;-63
2023/04/26 04:22:56;;;;;;;11.20;5.40;;;;;;;5.98;65.28;100820.16;4126343;28;20034;-64
2023/04/26 04:25:03;;;;;;;12.38;5.28;;;;;;;6.00;64.71;100822.78;4124179;28;20121;-64
2023/04/26 04:27:06;;;;;;;11.90;4.57;;;;;;;5.98;64.24;100824.44;4123691;28;20093;-62
2023/04/26 04:29:09;;;;;;;8.80;4.55;;;;;;;5.94;64.45;100823.38;4128670;28;20130;-64
2023/04/26 04:31:13;;;;;;;13.70;4.63;;;;;;;5.92;64.59;100825.03;4129869;28;20066;-64
2023/04/26 04:33:16;;;;;;;13.77;4.95;;;;;;;5.92;64.53;100825.91;4128026;28;20122;-64
2023/04/26 04:35:19;;;;;;;10.95;4.50;;;;;;;5.93;64.19;100827.69;4128823;28;20042;-64
2023/04/26 04:37:24;;;;;;;13.00;5.85;;;;;;;5.94;64.59;100828.53;4128480;28;20034;-64
2023/04/26 04:39:27;;;;;;;9.65;4.03;;;;;;;5.95;64.49;100822.56;4127673;28;20038;-63
2023/04/26 04:41:33;;;;;;;9.40;4.28;;;;;;;5.94;64.54;100831.13;4129727;28;20436;-63
2023/04/26 04:43:36;;;;;;;13.07;4.40;;;;;;;5.94;64.67;100836.28;4128828;28;20042;-65
2023/04/26 04:45:39;;;;;;;12.98;4.90;;;;;;;5.98;64.56;100835.63;4145816;28;20040;-62
2023/04/26 04:47:42;;;;;;;14.27;4.88;;;;;;;5.99;64.40;100839.97;4126602;28;20038;-62
2023/04/26 04:49:46;;;;;;;12.02;4.80;;;;;;;5.99;64.16;100842.56;4122033;28;20546;-65
2023/04/26 04:51:48;;;;;;;11.52;5.05;;;;;;;6.00;63.96;100846.00;4141538;28;20045;-63
2023/04/26 04:53:52;;;;;;;8.57;4.40;;;;;;;5.99;64.50;100849.44;4128480;28;20042;-63
2023/04/26 04:55:55;;;;;;;8.80;4.20;;;;;;;5.95;64.30;100851.84;4127386;28;20085;-63
2023/04/26 04:58:00;;;;;;;10.50;5.03;;;;;;;5.94;64.45;100849.19;4115925;28;20544;-63
2023/04/26 05:00:09;;;;;;;9.18;4.07;;;;;;;5.92;64.42;100851.72;4103061;28;20038;-63
2023/04/26 05:02:17;;;;;;;15.45;5.60;;;;;;;5.97;64.51;100861.34;4122108;28;20057;-63
2023/04/26 05:04:21;;;;;;;7.80;3.95;;;;;;;6.00;64.41;100861.50;4148751;23;20456;-61
2023/04/26 05:06:24;;;;;;;10.93;4.75;;;;;;;6.03;64.04;100862.50;4146143;28;20034;-61
2023/04/26 05:08:27;;;;;;;10.57;4.72;;;;;;;6.07;64.44;100860.91;4162817;28;20439;-61
2023/04/26 05:10:33;;;;;;;9.30;4.60;;;;;;;6.12;63.93;100856.81;4141582;28;20046;-61
2023/04/26 05:12:36;;;;;;;10.18;4.47;;;;;;;6.15;63.97;100859.53;4142772;28;20120;-61
2023/04/26 05:14:41;;;;;;;10.60;4.82;;;;;;;6.17;63.72;100859.56;4122927;28;20046;-61
2023/04/26 05:16:44;;;;;;;7.03;3.95;;;;;;;6.20;63.73;100859.69;4128697;28;20045;-61
2023/04/26 05:18:47;;;;;;;15.27;6.00;;;;;;;6.25;63.42;100859.06;4128924;28;20121;-60
2023/04/26 05:20:50;;;;;;;10.65;5.28;;;;;;;6.29;63.60;100858.34;4122852;28;20042;-62
2023/04/26 05:22:53;;;;;;;10.07;4.65;;;;;;;6.32;63.00;100864.44;4128350;28;20038;-61
2023/04/26 05:24:56;;;;;;;14.35;4.40;;;;;;;6.33;62.83;100863.63;4145225;28;20037;-61
2023/04/26 05:26:59;;;;;;;9.77;4.47;;;;;;;6.40;62.95;100865.63;4124835;28;20429;-61
2023/04/26 05:29:08;;;;;;;10.77;4.88;;;;;;;6.45;62.29;100866.66;4128847;28;20469;-61
2023/04/26 05:31:21;;;;;;;7.72;4.00;;;;;;;6.53;62.35;100866.97;4128802;28;20077;-61
2023/04/26 05:33:44;;;;;;;12.53;5.00;;;;;;;6.54;62.69;100863.53;4128365;28;20057;-61
2023/04/26 05:35:53;;;;;;;13.18;5.30;;;;;;;6.59;62.83;100868.06;4121665;28;20126;-61
2023/04/26 05:37:56;;;;;;;11.90;4.83;;;;;;;6.60;62.46;100869.81;4110527;28;20066;-61
2023/04/26 05:40:00;;;;;;;11.43;4.45;;;;;;;6.67;62.59;100872.63;4128597;28;20301;-61
2023/04/26 05:42:03;;;;;;;10.43;3.85;;;;;;;6.71;62.57;100875.38;4144923;28;20041;-61
2023/04/26 05:44:06;;;;;;;9.18;4.05;;;;;;;6.70;61.46;100872.72;4117491;28;20038;-61
2023/04/26 05:46:09;;;;;;;9.38;4.38;;;;;;;6.75;61.64;100874.66;4129162;28;20070;-62
2023/04/26 05:48:13;;;;;;;7.88;3.92;;;;;;;6.87;60.98;100878.53;4128636;28;20030;-61
2023/04/26 05:50:17;;;;;;;11.18;4.47;;;;;;;6.91;60.96;100872.66;4127999;28;20042;-61
2023/04/26 05:52:20;;;;;;;12.50;4.57;;;;;;;6.94;61.49;100876.22;4122832;28;20063;-61
2023/04/26 05:54:23;;;;;;;8.63;4.38;;;;;;;6.97;61.53;100875.44;4115724;28;20524;-61
2023/04/26 05:56:27;;;;;;;10.15;4.80;;;;;;;7.06;61.11;100880.06;4119052;28;20081;-61
2023/04/26 05:58:32;;;;;;;17.40;5.72;;;;;;;7.12;61.61;100875.09;4124534;28;20125;-61
2023/04/26 06:00:37;;;;;;;9.38;4.53;;;;;;;7.20;61.59;100881.44;4126976;28;20074;-61
2023/04/26 06:02:41;;;;;;;11.90;5.38;;;;;;;7.21;60.95;100883.16;4127983;28;20039;-61
2023/04/26 06:04:51;;;;;;;11.05;5.35;;;;;;;7.34;60.22;100892.22;4122286;28;20070;-61
2023/04/26 06:06:55;;;;;;;13.85;5.50;;;;;;;7.52;58.85;100886.81;4129102;28;20543;-61
2023/04/26 06:08:58;;;;;;;11.85;5.45;;;;;;;7.50;58.86;100891.03;4128318;28;20142;-61
2023/04/26 06:11:00;;;;;;;14.07;5.57;;;;;;;7.55;59.04;100894.69;4122927;28;20448;-61
2023/04/26 06:13:03;;;;;;;13.65;6.20;;;;;;;7.63;59.05;100894.94;4121066;28;20129;-61
2023/04/26 06:15:11;;;;;;;13.60;6.88;;;;;;;7.71;59.55;100896.06;4144575;28;20066;-61
2023/04/26 06:17:14;;;;;;;15.15;6.28;;;;;;;7.80;58.57;100900.66;4126236;28;20081;-61
2023/04/26 06:19:18;;;;;;;13.77;6.28;;;;;;;7.78;58.27;100904.91;4112024;28;20043;-61
2023/04/26 06:21:24;;;;;;;14.15;6.22;;;;;;;7.97;57.11;100902.09;4137638;28;20045;-61
2023/04/26 06:23:27;;;;;;;11.85;6.10;;;;;;;7.85;57.93;100904.25;4114704;28;20043;-62
2023/04/26 06:25:30;;;;;;;13.55;5.75;;;;;;;7.80;58.01;100898.09;4124292;28;20042;-61
2023/04/26 06:27:33;;;;;;;13.15;4.85;;;;;;;7.93;57.93;100905.41;4127322;28;20404;-61
2023/04/26 06:29:36;;;;;;;14.07;5.30;;;;;;;8.08;56.57;100902.41;4128125;28;20031;-61
2023/04/26 06:31:38;;;;;;;22.15;6.53;;;;;;;8.13;56.82;100897.38;4127450;28;20042;-61
2023/04/26 06:33:41;;;;;;;16.85;6.05;;;;;;;8.31;56.37;100899.63;4127578;28;20045;-61
2023/04/26 06:35:45;;;;;;;19.98;6.78;;;;;;;8.33;55.99;100901.47;4146743;28;20123;-61
2023/04/26 06:37:50;;;;;;;17.05;7.28;;;;;;;8.30;56.32;100895.31;4123504;28;20527;-61
2023/04/26 06:39:53;;;;;;;16.70;6.90;;;;;;;8.26;56.64;100893.47;4132104;28;20062;-61
2023/04/26 06:41:56;;;;;;;16.13;5.57;;;;;;;8.19;57.48;100898.47;4131169;28;20045;-61
2023/04/26 06:44:21;;;;;;;;;;;;;;;8.10;57.84;100897.28;4146630;28;20077;-61
2023/04/26 06:46:24;;;;;;;15.27;5.15;;;;;;;8.12;58.25;100893.91;4148055;28;20501;-61
2023/04/26 06:48:28;;;;;;;12.27;5.57;;;;;;;8.11;58.07;100896.47;4130363;28;20512;-61
2023/04/26 06:50:31;;;;;;;15.52;5.60;;;;;;;8.21;57.64;100886.41;4122349;28;20050;-61
2023/04/26 06:52:34;;;;;;;11.10;5.45;;;;;;;8.31;57.61;100887.59;4146389;28;20048;-61
2023/04/26 06:54:38;;;;;;;16.85;5.55;;;;;;;8.43;57.72;100887.06;4148311;28;20033;-61
2023/04/26 06:56:51;;;;;;;12.48;5.55;;;;;;;8.55;57.36;100886.59;4127176;28;20472;-61
2023/04/26 06:59:02;;;;;;;15.77;6.95;;;;;;;8.69;57.10;100893.06;4147730;28;20034;-62
2023/04/26 07:01:07;;;;;;;14.45;6.38;;;;;;;9.05;55.37;100883.66;4130181;28;20039;-61
2023/04/26 07:03:10;;;;;;;13.57;5.88;;;;;;;8.99;55.45;100889.56;4130225;28;20049;-61
2023/04/26 07:05:13;;;;;;;14.27;6.03;;;;;;;8.94;56.41;100885.09;4149054;28;20046;-61
2023/04/26 07:07:17;;;;;;;13.35;6.03;;;;;;;8.85;56.75;100873.63;4148827;28;20053;-61
2023/04/26 07:09:19;;;;;;;12.23;6.07;;;;;;;8.81;56.81;100883.88;4148300;28;20045;-61
2023/04/26 07:11:24;;;;;;;13.27;5.18;;;;;;;8.98;56.64;100882.63;4148008;28;20412;-62
2023/04/26 07:13:28;;;;;;;13.15;6.10;;;;;;;9.08;56.51;100883.75;4146970;28;20044;-61
2023/04/26 07:15:31;;;;;;;12.38;6.32;;;;;;;9.07;55.67;100877.69;4148000;28;20042;-61
2023/04/26 07:17:35;;;;;;;16.13;6.90;;;;;;;9.43;54.30;100879.50;4146911;28;20480;-61
2023/04/26 07:19:37;;;;;;;14.73;6.97;;;;;;;9.41;54.83;100881.16;4147469;28;20042;-61
2023/04/26 07:21:40;;;;;;;14.77;6.88;;;;;;;9.46;54.07;100880.41;4148753;28;20076;-61
2023/04/26 07:23:43;;;;;;;15.50;6.90;;;;;;;9.60;54.36;100884.22;4147230;28;20053;-61
2023/04/26 07:25:46;;;;;;;13.88;6.53;;;;;;;9.79;53.59;100876.03;4119484;28;20592;-61
2023/04/26 07:27:51;;;;;;;17.40;7.00;;;;;;;9.79;52.04;100875.19;4147692;28;20117;-61
2023/04/26 07:29:54;;;;;;;21.00;6.80;;;;;;;9.71;53.43;100882.78;4124380;28;20535;-61
2023/04/26 07:31:58;;;;;;;14.30;6.75;;;;;;;9.68;53.08;100880.13;4127721;28;20068;-61
2023/04/26 07:34:00;;;;;;;11.23;5.68;;;;;;;9.52;53.46;100873.66;4147258;28;21586;-61
2023/04/26 07:36:04;;;;;;;15.52;6.45;;;;;;;9.50;53.00;100872.72;4147652;28;20092;-61
2023/04/26 07:38:07;;;;;;;14.57;6.93;;;;;;;9.64;55.79;100878.28;4151720;28;20030;-61
2023/04/26 07:40:12;;;;;;;14.70;6.50;;;;;;;9.85;54.97;100871.84;4130328;28;20101;-61
2023/04/26 07:42:15;;;;;;;15.48;5.93;;;;;;;10.02;54.14;100878.31;4147821;28;20135;-61
2023/04/26 07:44:19;;;;;;;16.55;7.10;;;;;;;10.20;52.72;100879.59;4120802;28;20047;-61
2023/04/26 07:46:22;;;;;;;14.85;5.07;;;;;;;10.21;52.38;100874.41;4129381;28;20397;-61
2023/04/26 07:48:25;;;;;;;15.40;6.50;;;;;;;10.17;52.94;100882.13;4136638;28;20403;-62
2023/04/26 07:50:28;;;;;;;11.82;5.50;;;;;;;10.22;53.24;100881.38;4147381;28;20385;-61
2023/04/26 07:52:31;;;;;;;12.05;5.38;;;;;;;10.33;52.59;100878.13;4145198;28;20048;-61
2023/04/26 07:54:34;;;;;;;9.27;5.15;;;;;;;10.41;53.25;100880.09;4147488;28;20038;-61
2023/04/26 07:56:36;;;;;;;14.43;5.60;;;;;;;10.31;52.92;100878.13;4127798;28;20046;-61
2023/04/26 07:58:39;;;;;;;14.45;6.63;;;;;;;10.30;51.80;100879.81;4133879;28;20086;-61
2023/04/26 08:00:43;;;;;;;12.10;6.15;;;;;;;10.42;51.19;100876.63;4142292;28;20049;-61
2023/04/26 08:02:46;;;;;;;11.80;5.50;;;;;;;10.33;51.51;100873.81;4139847;28;20041;-61
2023/04/26 08:04:51;;;;;;;12.35;5.30;;;;;;;10.46;51.30;100881.06;4147270;28;20049;-60
2023/04/26 08:06:55;;;;;;;;;;;;;;;10.47;50.37;100871.56;4121090;28;20460;-60
2023/04/26 08:08:58;;;;;;;10.90;5.00;;;;;;;10.67;50.24;100877.16;4145472;28;19956;-61
2023/04/26 08:11:01;;;;;;;13.32;5.65;;;;;;;10.80;50.69;100879.16;4147152;28;20046;-61
2023/04/26 08:13:04;;;;;;;10.40;5.10;;;;;;;10.97;50.48;100881.22;4146232;28;20040;-60
2023/04/26 08:15:08;;;;;;;12.38;5.25;;;;;;;11.11;49.30;100884.97;4147253;28;21805;-60
2023/04/26 08:17:12;;;;;;;11.73;5.10;;;;;;;11.13;49.52;100880.66;4128361;28;20303;-60
2023/04/26 08:19:16;;;;;;;8.52;5.07;;;;;;;11.14;49.51;100881.53;4143802;28;20030;-61
2023/04/26 08:21:19;;;;;;;12.02;4.63;;;;;;;11.15;50.37;100878.09;4146607;28;20045;-60
2023/04/26 08:23:22;;;;;;;19.35;6.88;;;;;;;11.40;48.20;100879.41;4141898;28;20403;-60
2023/04/26 08:25:25;;;;;;;19.02;7.13;;;;;;;11.35;46.81;100873.25;4132256;28;20077;-59
2023/04/26 08:27:28;;;;;;;13.27;6.47;;;;;;;11.19;47.60;100874.69;4145325;28;20045;-60
2023/04/26 08:29:31;;;;;;;16.35;7.25;;;;;;;11.16;46.80;100875.50;4130630;28;20496;-61
2023/04/26 08:31:34;;;;;;;14.73;6.22;;;;;;;10.91;48.21;100874.19;4148531;28;20046;-61
2023/04/26 08:33:39;;;;;;;14.65;5.70;;;;;;;11.02;47.49;100876.97;4129710;28;20445;-60
2023/04/26 08:35:42;;;;;;;13.15;6.25;;;;;;;10.94;45.85;100875.97;4148626;28;20065;-59
2023/04/26 08:37:44;;;;;;;9.23;4.57;;;;;;;10.79;47.42;100868.72;4147188;28;20088;-59
2023/04/26 08:39:47;;;;;;;10.15;5.18;;;;;;;10.68;47.32;100865.91;4137716;28;20053;-59
2023/04/26 08:41:54;;;;;;;11.15;4.97;;;;;;;10.76;48.56;100869.56;4148453;28;20400;-60
2023/04/26 08:43:58;;;;;;;7.90;3.92;;;;;;;10.90;50.00;100872.41;4147273;28;20052;-60
2023/04/26 08:46:01;;;;;;;11.93;5.40;;;;;;;11.11;48.08;100865.84;4130649;28;20041;-60
2023/04/26 08:48:12;;;;;;;9.35;4.40;;;;;;;11.23;48.54;100868.69;4146602;28;21680;-60
2023/04/26 08:50:19;;;;;;;14.52;6.13;;;;;;;11.04;47.06;100870.09;4142367;28;20129;-59
2023/04/26 08:52:23;;;;;;;12.73;4.93;;;;;;;11.20;47.21;100866.06;4128758;28;20097;-60
2023/04/26 08:54:27;;;;;;;23.13;5.60;;;;;;;11.39;45.56;100856.84;4146085;28;20128;-60
2023/04/26 08:56:31;;;;;;;6.85;3.95;;;;;;;11.49;44.78;100853.53;4130034;28;20093;-60
2023/04/26 08:58:34;;;;;;;11.73;4.18;;;;;;;11.85;41.91;100856.69;4145875;28;20038;-60
2023/04/26 09:00:38;;;;;;;8.83;3.50;;;;;;;11.89;42.13;100850.69;4129041;28;20088;-61
2023/04/26 09:02:41;;;;;;;9.13;3.55;;;;;;;12.09;42.73;100839.69;4128185;28;20058;-61
2023/04/26 09:04:45;;;;;;;18.67;5.15;;;;;;;12.11;43.24;100849.31;4142731;28;20033;-61
2023/04/26 09:06:53;;;;;;;6.93;2.83;;;;;;;12.36;43.81;100845.28;4146342;28;20121;-61
2023/04/26 09:08:58;;;;;;;9.05;3.00;;;;;;;12.43;42.46;100841.03;4145744;28;20129;-60
2023/04/26 09:11:02;;;;;;;6.47;2.80;;;;;;;12.35;40.73;100842.66;4144856;28;20048;-60
2023/04/26 09:13:05;;;;;;;7.78;3.00;;;;;;;12.35;41.44;100843.56;4127973;28;20133;-60
2023/04/26 09:15:09;;;;;;;5.03;2.30;;;;;;;12.23;40.69;100844.25;4145808;28;20558;-60
2023/04/26 09:17:25;;;;;;;10.13;2.88;;;;;;;12.02;39.58;100839.63;4128109;28;20038;-60
2023/04/26 09:19:36;;;;;;;7.50;2.60;;;;;;;12.05;39.87;100838.78;4122201;28;20034;-60
2023/04/26 09:21:44;;;;;;;8.30;2.92;;;;;;;12.27;39.10;100839.09;4145717;28;20503;-60
2023/04/26 09:24:03;;;;;;;8.98;3.58;;;;;;;12.51;39.04;100828.97;4125054;28;20042;-60
2023/04/26 09:26:15;;;;;;;6.60;2.85;;;;;;;12.42;39.49;100839.28;4146016;28;20049;-61
2023/04/26 09:28:21;;;;;;;9.63;3.20;;;;;;;12.58;39.53;100836.00;4128397;28;20346;-60
2023/04/26 09:30:24;;;;;;;;;;;;;;;12.51;40.65;100834.19;4145358;28;20037;-60
2023/04/26 09:32:42;;;;;;;8.98;4.18;;;;;;;12.48;40.53;100834.13;4118737;28;19929;-60
2023/04/26 09:34:46;;;;;;;9.40;4.05;;;;;;;12.53;41.50;100837.69;4139905;28;20518;-60
2023/04/26 09:36:50;;;;;;;10.07;4.27;;;;;;;12.47;41.16;100844.53;4144696;28;20044;-60
2023/04/26 09:38:53;;;;;;;7.90;4.18;;;;;;;12.49;41.67;100837.63;4146354;28;20045;-60
2023/04/26 09:40:59;;;;;;;9.70;4.32;;;;;;;12.22;42.19;100837.31;4145780;28;20411;-60